Time;durP1;ratioP1;P1;durP2;ratioP2;P2;SDS_P1;SDS_P2;PMS_P1;PMS_P2;Temp;Humidity;BMP_temperature;BMP_pressure;BME280_temperature;BME280_humidity;BME280_pressure;Samples;Min_cycle;Max_cycle;Signal;HPM_P1;HPM_P2
2021/07/02 00:01:40;;;;;;;3.33;2.37;;;;;;;20.97;76.56;98740.62;1765187;79;21123;-55
2021/07/02 00:04:07;;;;;;;4.28;2.47;;;;;;;20.98;76.38;98742.34;1762348;79;21096;-53
2021/07/02 00:06:33;;;;;;;4.17;2.20;;;;;;;20.98;76.22;98742.34;1763773;79;21033;-54
2021/07/02 00:09:00;;;;;;;4.47;2.22;;;;;;;20.97;76.13;98732.92;1764634;79;21049;-54
2021/07/02 00:11:26;;;;;;;4.30;2.27;;;;;;;20.97;75.88;98741.13;1762957;79;21596;-53
2021/07/02 00:13:53;;;;;;;2.47;1.52;;;;;;;20.92;75.85;98734.80;1762818;79;21483;-55
2021/07/02 00:16:19;;;;;;;2.35;1.87;;;;;;;20.91;75.88;98730.85;1763669;79;21089;-54
2021/07/02 00:18:46;;;;;;;2.35;1.27;;;;;;;20.87;75.99;98728.08;1766333;80;21113;-54
2021/07/02 00:21:13;;;;;;;2.37;1.25;;;;;;;20.84;76.00;98729.25;1762144;79;21165;-53
2021/07/02 00:23:40;;;;;;;1.60;1.50;;;;;;;20.84;75.94;98727.06;1762956;80;21115;-55
2021/07/02 00:26:06;;;;;;;3.10;1.47;;;;;;;20.83;75.94;98728.94;1761878;79;22157;-55
2021/07/02 00:28:32;;;;;;;4.53;1.80;;;;;;;20.83;75.88;98728.94;1763239;79;22384;-54
2021/07/02 00:30:58;;;;;;;2.60;1.95;;;;;;;20.84;75.82;98732.53;1763726;80;21515;-55
2021/07/02 00:33:25;;;;;;;4.65;2.60;;;;;;;20.84;75.84;98735.27;1764822;79;21139;-53
2021/07/02 00:35:51;;;;;;;2.60;1.90;;;;;;;20.83;75.66;98733.55;1763936;80;21095;-54
2021/07/02 00:38:18;;;;;;;2.42;1.50;;;;;;;20.81;75.67;98736.95;1763761;79;21149;-53
2021/07/02 00:40:44;;;;;;;1.80;1.45;;;;;;;20.76;75.61;98734.17;1760979;80;21045;-53
2021/07/02 00:43:11;;;;;;;2.90;1.52;;;;;;;20.72;75.68;98724.59;1765121;79;21552;-54
2021/07/02 00:45:37;;;;;;;4.03;1.12;;;;;;;20.70;75.80;98731.24;1764666;79;21059;-55
2021/07/02 00:48:05;;;;;;;9.90;1.30;;;;;;;20.68;75.86;98725.07;1761414;79;21173;-54
2021/07/02 00:50:32;;;;;;;1.65;1.10;;;;;;;20.67;75.83;98717.92;1767379;79;20879;-53
2021/07/02 00:52:59;;;;;;;4.20;2.12;;;;;;;20.66;75.84;98713.47;1764283;79;20900;-53
2021/07/02 00:55:25;;;;;;;2.17;1.30;;;;;;;20.63;75.84;98710.53;1761801;80;21093;-54
2021/07/02 00:57:52;;;;;;;5.97;1.52;;;;;;;20.62;75.83;98707.95;1762493;80;21070;-55
2021/07/02 01:00:19;;;;;;;1.95;1.65;;;;;;;20.61;75.87;98708.47;1765063;79;21137;-55
2021/07/02 01:02:45;;;;;;;2.52;2.22;;;;;;;20.59;75.96;98709.64;1759947;80;21069;-55
2021/07/02 01:05:13;;;;;;;5.45;1.75;;;;;;;20.58;76.07;98713.42;1764255;80;21062;-54
2021/07/02 01:07:42;;;;;;;4.00;1.82;;;;;;;20.54;76.13;98708.77;1761714;79;21580;-53
2021/07/02 01:10:11;;;;;;;3.87;1.35;;;;;;;20.54;76.11;98702.45;1762576;79;21450;-55
2021/07/02 01:12:38;;;;;;;1.95;1.20;;;;;;;20.53;76.19;98701.59;1763048;79;21397;-55
2021/07/02 01:15:06;;;;;;;2.37;1.17;;;;;;;20.51;76.27;98695.92;1735607;80;21005;-55
2021/07/02 01:17:32;;;;;;;5.75;1.57;;;;;;;20.50;76.29;98690.14;1761701;80;21064;-53
2021/07/02 01:19:59;;;;;;;3.90;1.25;;;;;;;20.47;76.27;98694.05;1766899;80;21073;-53
2021/07/02 01:22:28;;;;;;;2.87;1.30;;;;;;;20.46;76.13;98691.47;1765482;79;22427;-53
2021/07/02 01:25:01;;;;;;;2.47;1.30;;;;;;;20.42;75.97;98688.70;1765838;79;21378;-53
2021/07/02 01:27:29;;;;;;;6.83;1.40;;;;;;;20.36;75.87;98691.06;1734552;80;21085;-53
2021/07/02 01:29:57;;;;;;;8.70;1.27;;;;;;;20.32;76.00;98681.46;1763518;79;21113;-53
2021/07/02 01:32:24;;;;;;;4.05;1.40;;;;;;;20.31;76.08;98685.72;1762766;79;21021;-54
2021/07/02 01:34:50;;;;;;;5.97;1.10;;;;;;;20.31;76.21;98690.67;1765267;79;21072;-55
2021/07/02 01:37:17;;;;;;;3.55;1.52;;;;;;;20.32;76.21;98703.33;1762018;79;22351;-53
2021/07/02 01:39:44;;;;;;;5.47;2.25;;;;;;;20.31;76.19;98713.05;1738193;80;20986;-55
2021/07/02 01:42:11;;;;;;;3.70;1.90;;;;;;;20.29;76.46;98715.07;1765565;79;21033;-52
2021/07/02 01:44:40;;;;;;;1.52;1.42;;;;;;;20.26;76.48;98725.80;1761499;80;21101;-55
2021/07/02 01:47:07;;;;;;;1.85;1.40;;;;;;;20.26;76.65;98724.94;1765493;79;21087;-54
2021/07/02 01:49:35;;;;;;;9.90;1.20;;;;;;;20.24;76.81;98718.80;1762229;79;21140;-53
2021/07/02 01:52:02;;;;;;;4.45;1.00;;;;;;;20.21;76.79;98724.07;1761903;80;21171;-53
2021/07/02 01:54:29;;;;;;;4.30;1.57;;;;;;;20.21;76.75;98722.70;1725517;79;21121;-53
2021/07/02 01:56:56;;;;;;;2.87;1.10;;;;;;;20.20;76.55;98725.08;1764002;79;21050;-53
2021/07/02 01:59:27;;;;;;;7.50;1.67;;;;;;;20.20;76.43;98727.81;1766919;79;21295;-55
2021/07/02 02:01:58;;;;;;;4.65;1.10;;;;;;;20.21;76.39;98724.58;1763599;79;21147;-53
2021/07/02 02:04:25;;;;;;;4.80;1.22;;;;;;;20.21;76.38;98719.97;1763672;79;21415;-53
2021/07/02 02:06:52;;;;;;;8.73;1.65;;;;;;;20.19;76.27;98720.63;1734827;80;21077;-55
2021/07/02 02:09:19;;;;;;;3.50;1.52;;;;;;;20.20;76.29;98725.08;1760403;79;21140;-54
2021/07/02 02:11:49;;;;;;;3.50;1.82;;;;;;;20.20;76.08;98725.59;1755457;80;21073;-55
2021/07/02 02:14:17;;;;;;;2.62;1.95;;;;;;;20.17;76.07;98724.53;1754354;80;21592;-54
2021/07/02 02:16:45;;;;;;;2.98;2.65;;;;;;;20.15;76.07;98723.86;1755490;80;20955;-54
2021/07/02 02:19:13;;;;;;;3.25;2.72;;;;;;;20.12;76.17;98728.27;1761592;80;21108;-55
2021/07/02 02:21:40;;;;;;;4.95;3.83;;;;;;;20.11;76.39;98728.77;1756535;80;21053;-55
2021/07/02 02:24:06;;;;;;;5.10;2.98;;;;;;;20.11;76.62;98728.77;1757037;80;21065;-55
2021/07/02 02:26:33;;;;;;;5.33;3.52;;;;;;;20.11;76.95;98738.33;1758568;80;22226;-54
2021/07/02 02:29:01;;;;;;;5.40;2.90;;;;;;;20.11;77.27;98747.89;1758317;80;20891;-53
2021/07/02 02:31:27;;;;;;;3.10;2.30;;;;;;;20.14;77.54;98745.36;1761620;80;20982;-55
2021/07/02 02:33:55;;;;;;;3.42;3.05;;;;;;;20.17;77.60;98747.25;1758783;80;21461;-55
2021/07/02 02:36:22;;;;;;;3.95;3.47;;;;;;;20.24;77.61;98744.26;1760016;79;21382;-55
2021/07/02 02:38:49;;;;;;;3.42;3.02;;;;;;;20.30;77.62;98753.17;1762646;80;21241;-53
2021/07/02 02:41:16;;;;;;;5.85;4.50;;;;;;;20.34;77.77;98757.83;1764321;80;21472;-53
2021/07/02 02:43:42;;;;;;;9.05;5.60;;;;;;;20.37;77.92;98761.62;1736905;80;20871;-52
2021/07/02 02:46:09;;;;;;;8.13;5.55;;;;;;;20.41;78.07;98767.13;1758433;79;20966;-54
2021/07/02 02:48:36;;;;;;;10.35;7.40;;;;;;;20.46;78.16;98763.39;1733831;80;21141;-54
2021/07/02 02:51:02;;;;;;;7.50;6.80;;;;;;;20.51;78.25;98769.73;1754653;80;20959;-54
2021/07/02 02:53:29;;;;;;;9.88;6.85;;;;;;;20.54;78.30;98770.28;1753782;80;21755;-55
2021/07/02 02:55:55;;;;;;;9.28;8.38;;;;;;;20.58;78.45;98769.47;1758580;80;21714;-54
2021/07/02 02:58:22;;;;;;;9.35;8.45;;;;;;;20.61;78.60;98772.72;1758993;80;21029;-54
2021/07/02 03:00:49;;;;;;;8.85;8.15;;;;;;;20.65;78.66;98778.73;1754559;80;21073;-53
2021/07/02 03:03:15;;;;;;;8.53;7.72;;;;;;;20.70;78.72;98777.73;1753397;80;22386;-55
2021/07/02 03:05:42;;;;;;;8.98;8.18;;;;;;;20.76;78.78;98772.97;1733850;80;22187;-55
2021/07/02 03:08:08;;;;;;;8.00;7.40;;;;;;;20.80;78.90;98767.54;1757019;80;21717;-54
2021/07/02 03:10:38;;;;;;;10.72;9.48;;;;;;;20.89;79.02;98772.04;1761258;79;20954;-55
2021/07/02 03:13:04;;;;;;;8.53;7.83;;;;;;;20.96;78.91;98782.67;1767527;79;20919;-54
2021/07/02 03:15:32;;;;;;;9.35;8.53;;;;;;;21.01;78.87;98782.20;1767888;79;21104;-54
2021/07/02 03:17:59;;;;;;;11.15;9.70;;;;;;;21.05;78.93;98795.38;1744586;79;21051;-53
2021/07/02 03:20:26;;;;;;;9.03;8.23;;;;;;;21.07;78.98;98793.34;1734667;80;21548;-55
2021/07/02 03:22:53;;;;;;;9.93;9.23;;;;;;;21.11;79.00;98799.32;1765951;79;21520;-54
2021/07/02 03:25:19;;;;;;;8.78;7.97;;;;;;;21.12;78.94;98788.22;1763251;79;21726;-53
2021/07/02 03:27:47;;;;;;;9.13;8.43;;;;;;;21.15;78.89;98787.91;1737528;80;21480;-53
2021/07/02 03:30:14;;;;;;;8.43;7.62;;;;;;;21.19;78.85;98790.32;1766673;79;21053;-52
2021/07/02 03:32:41;;;;;;;7.60;7.08;;;;;;;21.23;78.88;98790.36;1770051;79;21034;-52
2021/07/02 03:35:09;;;;;;;6.05;5.53;;;;;;;21.27;78.86;98780.78;1764425;79;21069;-53
2021/07/02 03:37:37;;;;;;;5.83;5.42;;;;;;;21.30;78.75;98785.42;1740003;80;20974;-54
2021/07/02 03:40:07;;;;;;;6.45;5.95;;;;;;;21.33;78.79;98789.72;1732127;81;21106;-53
2021/07/02 03:42:34;;;;;;;6.00;5.50;;;;;;;21.36;78.50;98785.27;1731746;81;21326;-54
2021/07/02 03:45:03;;;;;;;5.58;4.75;;;;;;;21.36;78.42;98788.86;1717196;81;21101;-52
2021/07/02 03:47:32;;;;;;;4.33;4.03;;;;;;;21.39;78.29;98793.16;1717984;82;21077;-54
2021/07/02 03:50:00;;;;;;;4.80;4.47;;;;;;;21.39;78.19;98796.75;1720157;82;21140;-54
2021/07/02 03:52:27;;;;;;;4.47;3.95;;;;;;;21.40;78.02;98802.58;1705660;82;21119;-53
2021/07/02 03:54:53;;;;;;;6.12;3.72;;;;;;;21.40;77.89;98801.72;1698870;82;21088;-53
2021/07/02 03:57:20;;;;;;;5.30;2.67;;;;;;;21.40;77.88;98803.09;1732284;81;20911;-54
2021/07/02 03:59:49;;;;;;;4.00;3.15;;;;;;;21.38;77.71;98803.25;1729579;81;21120;-54
2021/07/02 04:02:15;;;;;;;3.00;2.65;;;;;;;21.40;77.70;98797.61;1731049;80;21060;-53
2021/07/02 04:04:41;;;;;;;3.27;3.08;;;;;;;21.42;77.55;98804.64;1700066;82;22124;-52
2021/07/02 04:07:10;;;;;;;3.08;2.87;;;;;;;21.41;77.14;98797.96;1707480;82;20977;-53
2021/07/02 04:09:37;;;;;;;3.30;3.10;;;;;;;21.38;77.03;98796.91;1700861;82;21076;-52
2021/07/02 04:12:04;;;;;;;3.70;3.50;;;;;;;21.40;77.04;98805.83;1687013;82;21561;-55
2021/07/02 04:14:33;;;;;;;10.95;3.08;;;;;;;21.42;76.91;98805.16;1690578;82;22501;-53
2021/07/02 04:17:00;;;;;;;2.92;2.72;;;;;;;21.43;76.78;98795.92;1675375;83;21828;-53
2021/07/02 04:19:27;;;;;;;3.02;2.85;;;;;;;21.44;76.86;98800.34;1684130;82;21361;-52
2021/07/02 04:21:55;;;;;;;3.00;2.55;;;;;;;21.45;76.91;98800.70;1705708;82;21074;-52
2021/07/02 04:24:21;;;;;;;6.37;3.60;;;;;;;21.48;76.80;98802.61;1708103;82;21558;-55
2021/07/02 04:26:48;;;;;;;2.25;1.77;;;;;;;21.52;76.55;98800.41;1685531;82;21560;-53
2021/07/02 04:29:14;;;;;;;4.10;2.55;;;;;;;21.58;76.46;98798.88;1755302;80;21112;-53
2021/07/02 04:31:40;;;;;;;3.30;2.60;;;;;;;21.58;76.31;98796.99;1748411;79;21070;-53
2021/07/02 04:34:07;;;;;;;3.37;3.08;;;;;;;21.61;76.38;98791.16;1749682;79;21094;-54
2021/07/02 04:36:35;;;;;;;4.92;3.72;;;;;;;21.65;75.99;98795.80;1751975;80;21027;-55
2021/07/02 04:39:02;;;;;;;3.45;2.90;;;;;;;21.64;75.78;98804.53;1747791;80;21049;-52
2021/07/02 04:41:29;;;;;;;5.40;4.08;;;;;;;21.62;75.67;98812.05;1753537;80;21205;-54
2021/07/02 04:43:56;;;;;;;3.67;3.22;;;;;;;21.59;75.58;98809.66;1752977;79;21077;-52
2021/07/02 04:46:22;;;;;;;3.45;3.25;;;;;;;21.55;75.68;98812.88;1753799;80;21022;-54
2021/07/02 04:48:50;;;;;;;4.53;3.60;;;;;;;21.55;75.96;98807.41;1756654;79;21054;-55
2021/07/02 04:51:16;;;;;;;2.22;2.02;;;;;;;21.56;76.09;98808.62;1753937;80;21081;-56
2021/07/02 04:53:43;;;;;;;3.40;2.00;;;;;;;21.57;76.09;98813.07;1754209;79;21128;-53
2021/07/02 04:56:12;;;;;;;3.15;2.60;;;;;;;21.59;76.09;98808.30;1749526;79;21042;-54
2021/07/02 04:58:42;;;;;;;4.12;3.12;;;;;;;21.61;75.97;98796.64;1755529;80;21098;-54
2021/07/02 05:01:09;;;;;;;5.97;2.92;;;;;;;21.66;76.07;98792.91;1756256;79;20980;-53
2021/07/02 05:03:35;;;;;;;6.62;2.42;;;;;;;21.73;75.90;98795.83;1751386;79;21093;-53
2021/07/02 05:06:03;;;;;;;3.62;2.00;;;;;;;21.81;75.93;98797.21;1754152;79;22941;-53
2021/07/02 05:08:31;;;;;;;3.90;2.10;;;;;;;21.92;75.81;98801.52;1757709;79;20966;-55
2021/07/02 05:10:57;;;;;;;3.33;2.42;;;;;;;22.00;75.58;98790.61;1754495;79;21070;-53
2021/07/02 05:13:23;;;;;;;3.85;3.55;;;;;;;22.07;75.29;98798.48;1765862;79;21380;-55
2021/07/02 05:15:52;;;;;;;8.95;2.85;;;;;;;22.12;74.99;98792.83;1766005;79;21544;-53
2021/07/02 05:18:20;;;;;;;3.15;2.12;;;;;;;22.16;74.83;98795.59;1762442;79;21523;-55
2021/07/02 05:20:47;;;;;;;2.33;2.12;;;;;;;22.23;74.76;98797.13;1763587;79;21256;-54
2021/07/02 05:25:37;;;;;;;5.03;1.85;;;;;;;22.33;74.13;98789.59;1794604;78;28224;-53
2021/07/02 05:28:04;;;;;;;8.85;3.30;;;;;;;22.31;74.11;98799.01;1764093;79;21432;-53
2021/07/02 05:30:31;;;;;;;3.62;2.35;;;;;;;22.34;74.12;98801.42;1774148;79;21152;-54
2021/07/02 05:32:58;;;;;;;3.55;2.27;;;;;;;22.38;74.02;98802.26;1761092;79;21010;-54
2021/07/02 05:35:25;;;;;;;2.75;2.52;;;;;;;22.43;74.04;98805.88;1763765;79;22040;-54
2021/07/02 05:37:51;;;;;;;3.50;3.12;;;;;;;22.47;74.14;98804.48;1762500;79;21605;-53
2021/07/02 05:40:19;;;;;;;3.62;2.67;;;;;;;22.52;74.00;98807.59;1765087;79;21479;-54
2021/07/02 05:42:45;;;;;;;5.87;2.60;;;;;;;22.57;73.86;98807.91;1764587;79;21208;-55
2021/07/02 05:45:12;;;;;;;3.17;2.80;;;;;;;22.60;73.76;98818.03;1761541;78;21751;-55
2021/07/02 05:47:57;;;;;;;2.35;1.85;;;;;;;22.66;73.57;98815.11;1757196;78;21060;-55
2021/07/02 05:50:17;;;;;;;2.95;2.05;;;;;;;22.71;73.72;98819.58;1765407;79;20949;-54
2021/07/02 05:52:44;;;;;;;3.08;1.35;;;;;;;22.78;73.42;98827.99;1765923;78;21123;-56
2021/07/02 05:55:12;;;;;;;3.15;2.17;;;;;;;22.80;72.89;98825.91;1766777;78;23059;-55
2021/07/02 05:57:40;;;;;;;3.42;2.50;;;;;;;22.85;72.82;98819.41;1767148;78;20852;-56
2021/07/02 06:00:08;;;;;;;2.92;2.17;;;;;;;22.89;72.51;98827.61;1769108;78;21443;-57
2021/07/02 06:02:36;;;;;;;3.52;1.82;;;;;;;22.91;72.59;98827.79;1770680;78;21561;-54
2021/07/02 06:05:04;;;;;;;2.47;1.65;;;;;;;23.00;72.44;98831.38;1770333;78;20929;-56
2021/07/02 06:07:49;;;;;;;2.42;1.50;;;;;;;23.07;72.01;98821.91;1765905;79;21157;-57
2021/07/02 06:10:16;;;;;;;2.37;2.17;;;;;;;23.13;71.87;98823.98;1708545;81;22512;-56
2021/07/02 06:12:42;;;;;;;3.17;1.67;;;;;;;23.21;71.26;98819.32;1706697;81;21050;-54
2021/07/02 06:15:12;;;;;;;4.70;2.02;;;;;;;23.25;71.42;98823.92;1702866;81;21099;-57
2021/07/02 06:17:40;;;;;;;3.77;1.90;;;;;;;23.31;70.87;98821.83;1699243;82;20897;-58
2021/07/02 06:20:08;;;;;;;2.92;2.50;;;;;;;23.37;71.05;98828.87;1706310;81;21056;-58
2021/07/02 06:22:35;;;;;;;3.83;1.82;;;;;;;23.46;71.24;98827.46;1709599;81;20942;-57
2021/07/02 06:25:04;;;;;;;2.55;2.08;;;;;;;23.56;71.40;98822.66;1684921;82;20962;-56
2021/07/02 06:27:30;;;;;;;2.87;2.02;;;;;;;23.64;70.96;98823.98;1746573;79;20923;-57
2021/07/02 06:29:57;;;;;;;2.15;1.95;;;;;;;23.71;70.71;98816.73;1750568;79;22184;-57
2021/07/02 06:32:23;;;;;;;3.52;2.30;;;;;;;23.74;70.31;98815.83;1748150;79;21718;-57
2021/07/02 06:34:49;;;;;;;2.58;1.90;;;;;;;23.75;69.75;98815.31;1749770;79;21059;-55
2021/07/02 06:37:17;;;;;;;4.87;2.30;;;;;;;23.77;69.24;98820.13;1689502;82;21089;-56
2021/07/02 06:39:44;;;;;;;3.77;2.45;;;;;;;23.78;69.17;98809.47;1748993;79;21065;-54
2021/07/02 06:42:11;;;;;;;2.62;1.90;;;;;;;23.77;69.45;98814.63;1749063;79;21109;-55
2021/07/02 06:44:37;;;;;;;2.92;2.58;;;;;;;23.79;69.07;98814.45;1747692;79;23133;-56
2021/07/02 06:47:04;;;;;;;3.22;2.15;;;;;;;23.81;69.00;98813.77;1745619;79;21047;-57
2021/07/02 06:49:31;;;;;;;5.08;1.92;;;;;;;23.86;68.91;98814.92;1746592;79;21094;-58
2021/07/02 06:51:57;;;;;;;2.27;2.08;;;;;;;23.93;68.93;98813.16;1745535;79;21722;-55
2021/07/02 06:54:24;;;;;;;4.30;2.30;;;;;;;24.00;68.66;98806.41;1744098;79;21053;-56
2021/07/02 06:57:02;;;;;;;9.88;4.92;;;;;;;24.04;68.37;98806.39;1745720;80;21183;-54
2021/07/02 06:59:31;;;;;;;3.52;2.35;;;;;;;24.04;67.92;98807.77;1748486;79;21479;-53
2021/07/02 07:01:58;;;;;;;2.40;2.20;;;;;;;24.03;68.27;98811.55;1749105;79;21069;-55
2021/07/02 07:04:34;;;;;;;2.08;1.87;;;;;;;24.01;68.27;98810.87;1744634;79;21082;-55
2021/07/02 07:07:03;;;;;;;3.37;2.00;;;;;;;24.03;68.39;98811.55;1748550;80;21536;-54
2021/07/02 07:09:30;;;;;;;1.87;1.37;;;;;;;24.06;67.98;98813.95;1746492;79;21922;-54
2021/07/02 07:11:58;;;;;;;2.85;1.75;;;;;;;24.07;67.49;98813.73;1749631;79;20962;-53
2021/07/02 07:14:25;;;;;;;1.57;1.30;;;;;;;24.10;67.19;98813.90;1744384;79;21034;-54
2021/07/02 07:16:52;;;;;;;4.85;2.47;;;;;;;24.13;66.66;98814.92;1748190;79;20950;-53
2021/07/02 07:19:25;;;;;;;2.12;2.02;;;;;;;24.13;66.53;98813.03;1745430;79;21623;-56
2021/07/02 07:21:47;;;;;;;3.75;2.05;;;;;;;24.11;65.91;98812.34;1750794;79;21112;-56
2021/07/02 07:24:13;;;;;;;2.80;1.85;;;;;;;24.05;66.44;98815.84;1748540;79;21148;-52
2021/07/02 07:26:40;;;;;;;1.62;1.50;;;;;;;24.00;67.09;98821.52;1756694;79;22046;-54
2021/07/02 07:29:06;;;;;;;7.28;3.33;;;;;;;23.97;67.19;98810.39;1751629;79;21520;-54
2021/07/02 07:31:33;;;;;;;6.83;3.05;;;;;;;23.97;67.18;98814.52;1751121;79;21556;-56
2021/07/02 07:34:00;;;;;;;4.08;2.60;;;;;;;23.96;67.00;98810.57;1752195;79;21126;-52
2021/07/02 07:36:28;;;;;;;2.55;2.35;;;;;;;23.93;66.93;98810.92;1751602;79;21623;-56
2021/07/02 07:38:55;;;;;;;4.22;2.90;;;;;;;23.93;67.18;98824.15;1754576;79;21318;-55
2021/07/02 07:41:23;;;;;;;4.17;2.55;;;;;;;23.91;67.29;98816.59;1753200;79;21653;-54
2021/07/02 07:43:51;;;;;;;3.30;2.27;;;;;;;23.93;67.36;98820.02;1753735;79;21494;-55
2021/07/02 07:46:17;;;;;;;3.30;2.05;;;;;;;23.90;66.78;98821.78;1759264;79;21120;-54
2021/07/02 07:48:44;;;;;;;2.35;1.80;;;;;;;23.84;66.82;98818.88;1751997;79;21135;-55
2021/07/02 07:51:16;;;;;;;3.45;2.08;;;;;;;23.78;67.13;98801.75;1755478;79;21116;-55
2021/07/02 07:53:40;;;;;;;2.55;2.42;;;;;;;23.77;67.57;98813.25;1752292;79;21120;-56
2021/07/02 07:56:08;;;;;;;4.17;3.00;;;;;;;23.81;67.67;98822.01;1750345;79;21108;-55
2021/07/02 07:58:36;;;;;;;3.47;3.17;;;;;;;23.82;67.37;98822.34;1754299;79;21101;-57
2021/07/02 08:01:02;;;;;;;5.22;3.20;;;;;;;23.81;67.05;98829.73;1757746;79;21113;-54
2021/07/02 08:03:29;;;;;;;4.35;2.65;;;;;;;23.83;67.03;98833.65;1755788;79;20997;-55
2021/07/02 08:05:56;;;;;;;5.05;3.02;;;;;;;23.78;66.82;98832.83;1749685;79;21116;-55
2021/07/02 08:08:22;;;;;;;2.77;2.58;;;;;;;23.74;67.13;98835.06;1752511;79;21534;-55
2021/07/02 08:10:49;;;;;;;3.00;2.80;;;;;;;23.74;67.05;98842.45;1757527;79;21190;-55
2021/07/02 08:13:17;;;;;;;3.47;2.17;;;;;;;23.76;67.05;98844.00;1758045;79;22592;-56
2021/07/02 08:15:45;;;;;;;4.37;2.35;;;;;;;23.78;66.93;98843.82;1759567;79;21002;-55
2021/07/02 08:18:11;;;;;;;2.80;2.20;;;;;;;23.78;66.80;98848.45;1757761;79;21105;-54
2021/07/02 08:20:37;;;;;;;5.47;3.60;;;;;;;23.81;66.74;98847.59;1763372;79;21041;-53
2021/07/02 08:23:08;;;;;;;2.65;2.47;;;;;;;23.82;66.57;98852.58;1752363;79;22720;-54
2021/07/02 08:25:32;;;;;;;2.15;1.92;;;;;;;23.79;66.39;98854.30;1748229;79;21058;-53
2021/07/02 08:30:43;;;;;;;2.55;2.05;;;;;;;23.74;66.52;98866.66;1742393;79;21583;-56
2021/07/02 08:33:16;;;;;;;2.47;2.27;;;;;;;23.74;66.42;98865.80;1741120;80;21627;-56
2021/07/02 08:35:38;;;;;;;2.98;2.20;;;;;;;23.73;66.39;98854.50;1694421;82;22059;-55
2021/07/02 08:38:04;;;;;;;2.90;2.52;;;;;;;23.73;66.48;98860.83;1741784;79;21718;-55
2021/07/02 08:40:31;;;;;;;3.00;2.77;;;;;;;23.76;66.32;98856.88;1743700;79;21077;-57
2021/07/02 08:42:57;;;;;;;3.72;3.12;;;;;;;23.80;66.11;98847.77;1720170;81;21093;-55
2021/07/02 08:45:24;;;;;;;2.98;2.77;;;;;;;23.81;65.77;98846.73;1742795;79;21081;-58
2021/07/02 08:47:54;;;;;;;2.52;2.35;;;;;;;23.82;65.85;98849.28;1744516;79;21832;-55
2021/07/02 08:50:22;;;;;;;5.72;2.27;;;;;;;23.88;65.75;98849.95;1746165;79;21078;-55
2021/07/02 08:52:48;;;;;;;3.80;2.27;;;;;;;23.95;64.98;98840.46;1747213;79;21118;-56
2021/07/02 08:55:15;;;;;;;2.85;2.65;;;;;;;24.00;64.88;98841.63;1744830;79;21077;-53
2021/07/02 08:57:42;;;;;;;5.95;1.92;;;;;;;24.04;64.95;98848.48;1748505;79;21094;-56
2021/07/02 09:00:10;;;;;;;5.05;2.60;;;;;;;24.05;65.22;98856.22;1748197;79;21030;-56
2021/07/02 09:02:39;;;;;;;2.72;2.55;;;;;;;24.05;65.17;98868.06;1744799;80;21040;-54
2021/07/02 09:05:24;;;;;;;4.85;2.98;;;;;;;24.05;65.28;98857.59;1685711;83;21085;-56
2021/07/02 09:07:51;;;;;;;3.52;2.10;;;;;;;24.08;65.16;98855.83;1747802;79;21144;-54
2021/07/02 09:10:17;;;;;;;2.10;1.92;;;;;;;24.14;65.25;98864.23;1742745;79;21039;-56
2021/07/02 09:12:52;;;;;;;2.92;2.45;;;;;;;24.18;64.55;98866.59;1744279;79;21129;-56
2021/07/02 09:15:19;;;;;;;13.62;2.52;;;;;;;24.22;64.90;98866.63;1748286;79;21395;-55
2021/07/02 09:17:55;;;;;;;3.83;3.35;;;;;;;24.26;64.83;98861.08;1746289;79;21702;-56
2021/07/02 09:20:35;;;;;;;4.65;2.95;;;;;;;24.26;65.02;98859.19;1749235;79;21095;-54
2021/07/02 09:23:10;;;;;;;4.10;1.80;;;;;;;24.28;65.15;98860.38;1743357;80;21017;-56
2021/07/02 09:25:39;;;;;;;2.67;2.35;;;;;;;24.30;64.89;98858.31;1749457;79;21540;-55
2021/07/02 09:28:11;;;;;;;2.77;2.00;;;;;;;24.33;64.46;98856.59;1755260;79;21033;-56
2021/07/02 09:30:40;;;;;;;2.55;1.87;;;;;;;24.38;63.93;98849.48;1752902;79;21093;-55
2021/07/02 09:33:11;;;;;;;2.65;1.65;;;;;;;24.46;62.92;98848.56;1753215;79;20926;-55
2021/07/02 09:35:49;;;;;;;1.98;1.52;;;;;;;24.52;62.60;98847.81;1755803;80;20974;-56
2021/07/02 09:38:18;;;;;;;2.12;1.80;;;;;;;24.61;62.40;98848.60;1753388;79;22398;-56
2021/07/02 09:40:46;;;;;;;2.05;1.82;;;;;;;24.69;62.63;98846.64;1753600;80;21824;-55
2021/07/02 09:43:18;;;;;;;1.92;1.77;;;;;;;24.80;62.71;98847.58;1749381;79;21506;-56
2021/07/02 09:45:52;;;;;;;1.92;1.55;;;;;;;24.93;62.21;98844.72;1749102;79;21100;-56
2021/07/02 09:48:23;;;;;;;5.45;1.77;;;;;;;25.04;61.41;98838.77;1756157;79;20926;-55
2021/07/02 09:50:59;;;;;;;2.40;1.60;;;;;;;25.16;61.31;98831.25;1755199;79;21182;-56
2021/07/02 09:53:30;;;;;;;2.65;1.42;;;;;;;25.24;60.65;98842.17;1755334;79;20986;-55
2021/07/02 09:55:58;;;;;;;1.77;1.57;;;;;;;25.30;59.95;98830.91;1754144;79;21152;-56
2021/07/02 09:58:28;;;;;;;2.37;2.02;;;;;;;25.30;60.21;98839.17;1749360;79;21657;-55
2021/07/02 10:00:57;;;;;;;1.77;1.52;;;;;;;25.36;60.39;98837.55;1749692;79;21801;-55
2021/07/02 10:03:27;;;;;;;1.72;1.20;;;;;;;25.38;60.17;98839.08;1752977;79;21119;-53
2021/07/02 10:06:14;;;;;;;4.12;1.20;;;;;;;25.39;59.68;98833.91;1749777;79;21117;-57
2021/07/02 10:08:41;;;;;;;1.07;0.98;;;;;;;25.45;59.84;98837.78;1754757;79;21097;-53
2021/07/02 10:11:10;;;;;;;2.58;1.35;;;;;;;25.59;59.10;98837.83;1752032;79;21018;-57
2021/07/02 10:13:40;;;;;;;1.20;1.00;;;;;;;25.68;58.97;98830.31;1755062;79;20931;-54
2021/07/02 10:16:09;;;;;;;1.87;1.20;;;;;;;25.79;59.06;98829.80;1752591;79;21318;-54
2021/07/02 10:18:50;;;;;;;1.47;1.30;;;;;;;25.89;57.47;98831.73;1757312;79;21069;-56
2021/07/02 10:21:19;;;;;;;1.47;1.37;;;;;;;25.82;57.57;98832.70;1753274;80;21450;-55
2021/07/02 10:23:49;;;;;;;3.02;1.30;;;;;;;25.73;57.68;98831.95;1750803;79;21038;-54
2021/07/02 10:26:17;;;;;;;2.65;1.05;;;;;;;25.68;57.95;98825.33;1749046;79;21029;-55
2021/07/02 10:28:44;;;;;;;1.12;1.00;;;;;;;25.66;57.92;98823.28;1756148;80;21802;-55
2021/07/02 10:31:11;;;;;;;1.35;1.10;;;;;;;25.61;57.85;98820.56;1757669;79;21581;-56
2021/07/02 10:33:46;;;;;;;2.80;1.35;;;;;;;25.62;57.30;98827.78;1758016;79;21106;-54
2021/07/02 10:36:15;;;;;;;2.90;1.15;;;;;;;25.66;57.25;98819.14;1756211;79;22294;-56
2021/07/02 10:38:46;;;;;;;2.33;1.00;;;;;;;25.63;57.30;98823.98;1755921;79;21061;-57
2021/07/02 10:41:26;;;;;;;1.67;1.30;;;;;;;25.63;56.95;98817.62;1750259;79;22849;-55
2021/07/02 10:44:13;;;;;;;1.50;1.20;;;;;;;25.61;57.56;98822.45;1758447;79;21492;-55
2021/07/02 10:46:59;;;;;;;2.30;1.27;;;;;;;25.62;57.10;98825.03;1757948;79;21112;-56
2021/07/02 10:49:42;;;;;;;1.52;0.90;;;;;;;25.64;57.46;98820.70;1732791;80;21050;-51
2021/07/02 10:52:23;;;;;;;2.87;1.00;;;;;;;25.69;56.93;98820.15;1751523;79;21112;-55
2021/07/02 10:54:51;;;;;;;1.45;1.35;;;;;;;25.74;57.11;98812.14;1752372;79;21149;-55
2021/07/02 10:57:19;;;;;;;3.30;1.00;;;;;;;25.84;56.66;98812.70;1755747;79;21047;-54
2021/07/02 10:59:55;;;;;;;3.35;1.20;;;;;;;25.93;57.24;98817.05;1758677;79;20910;-56
2021/07/02 11:02:25;;;;;;;2.75;0.95;;;;;;;26.01;57.01;98816.92;1756446;79;21354;-55
2021/07/02 11:04:56;;;;;;;4.08;1.50;;;;;;;26.10;56.46;98813.52;1752945;79;21095;-54
2021/07/02 11:07:30;;;;;;;4.25;0.98;;;;;;;26.14;56.62;98812.06;1758281;79;21282;-54
2021/07/02 11:09:59;;;;;;;1.25;1.10;;;;;;;26.20;56.81;98809.38;1762284;79;21112;-54
2021/07/02 11:12:33;;;;;;;2.47;0.90;;;;;;;26.24;56.57;98806.56;1756258;79;21057;-54
2021/07/02 11:15:08;;;;;;;3.52;1.45;;;;;;;26.26;56.00;98806.41;1757611;79;21104;-55
2021/07/02 11:17:52;;;;;;;3.30;1.42;;;;;;;26.20;55.66;98798.34;1753496;79;21136;-55
2021/07/02 11:20:24;;;;;;;2.17;1.07;;;;;;;26.17;55.37;98802.03;1753206;79;21833;-54
2021/07/02 11:22:57;;;;;;;2.25;1.10;;;;;;;26.15;55.67;98799.47;1760855;79;21228;-52
2021/07/02 11:25:50;;;;;;;1.98;0.93;;;;;;;26.12;55.48;98794.85;1723840;79;21110;-56
2021/07/02 11:28:20;;;;;;;1.42;1.12;;;;;;;26.11;55.47;98794.03;1751919;79;21438;-55
2021/07/02 11:30:48;;;;;;;1.65;1.12;;;;;;;26.15;55.78;98787.58;1724672;80;21022;-54
2021/07/02 11:33:18;;;;;;;1.22;1.10;;;;;;;26.16;56.27;98792.91;1753305;79;22301;-55
2021/07/02 11:35:51;;;;;;;1.37;1.00;;;;;;;26.22;56.59;98788.49;1753693;79;21013;-55
2021/07/02 11:38:21;;;;;;;0.93;0.85;;;;;;;26.27;56.66;98787.43;1719966;80;21671;-53
2021/07/02 11:41:01;;;;;;;2.75;1.00;;;;;;;26.32;55.91;98785.77;1755838;80;21558;-54
2021/07/02 11:43:36;;;;;;;1.15;0.98;;;;;;;26.30;55.95;98783.73;1751861;79;20979;-55
2021/07/02 11:46:07;;;;;;;2.37;1.40;;;;;;;26.35;56.74;98782.63;1753904;79;21107;-54